Mexico V — XCKR — position and weather

sailwx.info

Track history (hours):
 
Tides and Currents Weather Stations Pressure Air Temp Water Temp Dewpoint Dewpoint Depression Visibility Wind Speed Wind Dir Waves Ship Positions

Mexico V

Last reported at 2015-Apr-19 18:31 UTC. Time now 2015-Apr-19 19:10 UTC.
Position N 20°31' W 086°57'.

Length 40 m; draft 1.5 m.

Type: Ship. MMSI: 345110005.

Date/timePositionNaut miles runAvg speedWind from/ knotsBaromVisibWave heightAir tempDewpointWater temp
2015-Apr-19 18:31N 20°31' W 086°57'0 0.0
2015-Apr-19 16:06N 20°31' W 086°57'0 0.0
2015-Apr-19 15:25N 20°31' W 086°57'0 0.1
2015-Apr-19 14:28N 20°31' W 086°57'0 0.0
2015-Apr-19 13:22N 20°31' W 086°57'0 0.0
2015-Apr-19 12:16N 20°31' W 086°57'0 0.0
2015-Apr-19 11:28N 20°31' W 086°57'0 0.0
2015-Apr-18 21:22N 20°31' W 086°57'1 0.2
2015-Apr-18 19:10N 20°31' W 086°57'0 0.1
2015-Apr-18 17:12N 20°31' W 086°58'1 0.3
2015-Apr-18 15:09N 20°31' W 086°57'0 0.0
2015-Apr-18 12:34N 20°31' W 086°57'1 0.8
2015-Apr-18 11:10N 20°31' W 086°58'1 1.8
2015-Apr-18 10:33N 20°30' W 086°57'0 0.0
2015-Apr-18 02:10N 20°30' W 086°57'0 0.0
2015-Apr-18 01:32N 20°30' W 086°57'0 0.0
2015-Apr-18 00:32N 20°30' W 086°57'0 0.0
2015-Apr-17 23:33N 20°30' W 086°57'2 1.6
2015-Apr-17 22:23N 20°29' W 086°58'2 1.2
2015-Apr-17 20:32N 20°31' W 086°57'1 0.6
2015-Apr-17 18:12N 20°32' W 086°58'1 0.6
2015-Apr-17 16:07N 20°31' W 086°57'1 1.3
2015-Apr-17 15:33N 20°31' W 086°58'1 0.4
2015-Apr-17 14:11N 20°32' W 086°58'1 1.6
2015-Apr-17 13:20N 20°31' W 086°57'0 0.0
2015-Apr-17 12:33N 20°31' W 086°57'0 0.0
2015-Apr-17 11:31N 20°31' W 086°57'0 0.0
2015-Apr-17 00:32N 20°31' W 086°57'0 0.0
2015-Apr-16 23:32N 20°31' W 086°57'2 1.9
2015-Apr-16 22:32N 20°29' W 086°58'2 0.7
2015-Apr-16 19:13N 20°32' W 086°58'0 0.2
2015-Apr-16 17:12N 20°31' W 086°58'0 0.4
2015-Apr-16 16:32N 20°32' W 086°58'0 0.2
2015-Apr-16 15:11N 20°32' W 086°58'1 0.9
2015-Apr-16 14:33N 20°31' W 086°57'1 0.7
2015-Apr-16 13:11N 20°32' W 086°58'1 2.2
2015-Apr-16 12:33N 20°31' W 086°57'1 0.8
2015-Apr-16 11:10N 20°31' W 086°58'1 1.6
2015-Apr-16 10:30N 20°30' W 086°57'0 0.0
2015-Apr-16 03:20N 20°30' W 086°57'0 0.4
2015-Apr-16 02:33N 20°31' W 086°57'0 0.0
2015-Apr-16 01:33N 20°31' W 086°57'0 0.0
2015-Apr-16 00:33N 20°31' W 086°57'0 0.0
2015-Apr-15 23:33N 20°31' W 086°57'0 0.0
2015-Apr-15 22:15N 20°31' W 086°57'2 2.5
2015-Apr-15 21:32N 20°30' W 086°59'3 0.8
2015-Apr-15 18:11N 20°32' W 086°58'1 0.3
2015-Apr-15 16:10N 20°32' W 086°58'1 1.6
2015-Apr-15 15:32N 20°31' W 086°57'0 0.1
2015-Apr-15 14:26N 20°31' W 086°57'1 1.0
2015-Apr-15 13:32N 20°31' W 086°58'0 0.3
2015-Apr-15 12:12N 20°32' W 086°58'1 1.6
2015-Apr-15 11:28N 20°31' W 086°57'0 0.0
2015-Apr-15 00:26N 20°31' W 086°57'0 0.0
2015-Apr-14 23:32N 20°31' W 086°57'0 0.3
2015-Apr-14 22:23N 20°31' W 086°57'1 0.4
2015-Apr-14 19:11N 20°32' W 086°58'1 1.3
2015-Apr-14 18:34N 20°31' W 086°57'1 0.6
2015-Apr-14 17:10N 20°32' W 086°58'3 0.8
2015-Apr-14 13:30N 20°29' W 086°59'0 0.0
2015-Apr-14 12:31N 20°29' W 086°59'2 2.4
2015-Apr-14 11:31N 20°31' W 086°57'0 0.0
2015-Apr-14 10:31N 20°31' W 086°57'0 0.0
2015-Apr-14 03:14N 20°30' W 086°57'0 0.0
2015-Apr-14 02:26N 20°30' W 086°57'0 0.0
2015-Apr-14 01:29N 20°30' W 086°57'0 0.0
2015-Apr-14 00:29N 20°30' W 086°57'0 0.0
2015-Apr-13 23:29N 20°30' W 086°57'0 0.3
2015-Apr-13 22:31N 20°31' W 086°57'0 0.0
2015-Apr-13 21:31N 20°31' W 086°57'0 0.0
2015-Apr-13 20:31N 20°31' W 086°57'0 0.4
2015-Apr-13 19:33N 20°31' W 086°57'1 0.6
2015-Apr-13 18:09N 20°31' W 086°58'0 0.2
2015-Apr-13 16:14N 20°31' W 086°58'1 1.1
2015-Apr-13 15:28N 20°31' W 086°57'0 0.1
2015-Apr-13 14:25N 20°31' W 086°57'1 0.4
2015-Apr-13 12:10N 20°31' W 086°58'1 0.9
2015-Apr-13 11:15N 20°31' W 086°57'0 0.0
2015-Apr-13 02:06N 20°31' W 086°57'1 0.6
2015-Apr-13 00:14N 20°32' W 086°58'1 1.1
2015-Apr-12 23:18N 20°31' W 086°57'0 0.1
2015-Apr-12 22:28N 20°31' W 086°57'0 0.0
2015-Apr-12 21:28N 20°31' W 086°57'0 0.0
2015-Apr-12 20:28N 20°31' W 086°57'0 0.0
2015-Apr-12 19:28N 20°31' W 086°57'0 0.0
2015-Apr-12 18:24N 20°31' W 086°57'0 0.0
2015-Apr-12 17:32N 20°31' W 086°57'0 0.0
2015-Apr-12 16:32N 20°31' W 086°57'0 0.1
2015-Apr-12 14:33N 20°31' W 086°57'0 0.1
2015-Apr-12 13:25N 20°31' W 086°57'0 0.0
2015-Apr-12 12:31N 20°31' W 086°57'1 0.1
2015-Apr-12 03:34N 20°31' W 086°57'1 0.9
2015-Apr-12 02:13N 20°32' W 086°58'2 1.8
2015-Apr-12 01:18N 20°31' W 086°57'0 0.1
2015-Apr-12 00:33N 20°31' W 086°57'0 0.0
2015-Apr-11 23:33N 20°31' W 086°57'0 0.0
2015-Apr-11 22:34N 20°31' W 086°57'0 0.1
2015-Apr-11 21:30N 20°31' W 086°57'1 0.9
2015-Apr-11 20:08N 20°32' W 086°58'0 0.2
2015-Apr-11 19:33N 20°32' W 086°58'0 0.2
2015-Apr-11 18:13N 20°32' W 086°58'1 0.5
2015-Apr-11 16:09N 20°31' W 086°57'0 0.7
2015-Apr-11 15:32N 20°31' W 086°57'0 0.1
2015-Apr-11 14:33N 20°31' W 086°57'0 0.0
2015-Apr-11 13:33N 20°31' W 086°57'0 0.0
2015-Apr-11 12:33N 20°31' W 086°57'0 0.0
2015-Apr-11 11:33N 20°31' W 086°57'0 0.0
2015-Apr-11 00:32N 20°31' W 086°57'0 0.0
2015-Apr-10 23:32N 20°31' W 086°57'0 0.2
2015-Apr-10 22:32N 20°31' W 086°57'0 0.2
2015-Apr-10 20:33N 20°31' W 086°57'0 0.2
2015-Apr-10 19:33N 20°31' W 086°57'1 1.0
2015-Apr-10 18:33N 20°32' W 086°58'0 0.3
2015-Apr-10 17:12N 20°32' W 086°58'0 0.0
2015-Apr-10 15:11N 20°32' W 086°58'1 1.7
2015-Apr-10 14:33N 20°31' W 086°57'1 0.7
2015-Apr-10 13:10N 20°32' W 086°58'1 1.6
2015-Apr-10 12:33N 20°31' W 086°57'1 0.8
2015-Apr-10 11:11N 20°32' W 086°58'2 2.3
2015-Apr-10 10:32N 20°31' W 086°57'1 0.1
2015-Apr-10 03:34N 20°31' W 086°57'1 0.7
2015-Apr-10 02:11N 20°32' W 086°58'1 1.6
2015-Apr-10 01:15N 20°31' W 086°57'0 0.1
2015-Apr-10 00:32N 20°31' W 086°57'2 2.3
2015-Apr-09 23:33N 20°29' W 086°58'3 2.5
2015-Apr-09 22:10N 20°32' W 086°58'1 1.8
2015-Apr-09 21:33N 20°31' W 086°58'0 0.1
2015-Apr-09 20:07N 20°31' W 086°58'1 0.8
2015-Apr-09 19:07N 20°31' W 086°57'  
Track history (hours):
 
Tides and Currents Weather Stations Pressure Air Temp Water Temp Dewpoint Dewpoint Depression Visibility Wind Speed Wind Dir Waves Ship Positions

Mexico V

Last reported at 2015-Apr-19 18:31 UTC. Time now 2015-Apr-19 19:10 UTC.
Position N 20°31' W 086°57'.

Length 40 m; draft 1.5 m.

Type: Ship. MMSI: 345110005.

Date/timePositionNaut miles runAvg speedWind from/ knotsBaromVisibWave heightAir tempDewpointWater temp
2015-Apr-19 18:31N 20°31' W 086°57'0 0.0
2015-Apr-19 16:06N 20°31' W 086°57'0 0.0
2015-Apr-19 15:25N 20°31' W 086°57'0 0.1
2015-Apr-19 14:28N 20°31' W 086°57'0 0.0
2015-Apr-19 13:22N 20°31' W 086°57'0 0.0
2015-Apr-19 12:16N 20°31' W 086°57'0 0.0
2015-Apr-19 11:28N 20°31' W 086°57'0 0.0
2015-Apr-18 21:22N 20°31' W 086°57'1 0.2
2015-Apr-18 19:10N 20°31' W 086°57'0 0.1
2015-Apr-18 17:12N 20°31' W 086°58'1 0.3
2015-Apr-18 15:09N 20°31' W 086°57'0 0.0
2015-Apr-18 12:34N 20°31' W 086°57'1 0.8
2015-Apr-18 11:10N 20°31' W 086°58'1 1.8
2015-Apr-18 10:33N 20°30' W 086°57'0 0.0
2015-Apr-18 02:10N 20°30' W 086°57'0 0.0
2015-Apr-18 01:32N 20°30' W 086°57'0 0.0
2015-Apr-18 00:32N 20°30' W 086°57'0 0.0
2015-Apr-17 23:33N 20°30' W 086°57'2 1.6
2015-Apr-17 22:23N 20°29' W 086°58'2 1.2
2015-Apr-17 20:32N 20°31' W 086°57'1 0.6
2015-Apr-17 18:12N 20°32' W 086°58'1 0.6
2015-Apr-17 16:07N 20°31' W 086°57'1 1.3
2015-Apr-17 15:33N 20°31' W 086°58'1 0.4
2015-Apr-17 14:11N 20°32' W 086°58'1 1.6
2015-Apr-17 13:20N 20°31' W 086°57'0 0.0
2015-Apr-17 12:33N 20°31' W 086°57'0 0.0
2015-Apr-17 11:31N 20°31' W 086°57'0 0.0
2015-Apr-17 00:32N 20°31' W 086°57'0 0.0
2015-Apr-16 23:32N 20°31' W 086°57'2 1.9
2015-Apr-16 22:32N 20°29' W 086°58'2 0.7
2015-Apr-16 19:13N 20°32' W 086°58'0 0.2
2015-Apr-16 17:12N 20°31' W 086°58'0 0.4
2015-Apr-16 16:32N 20°32' W 086°58'0 0.2
2015-Apr-16 15:11N 20°32' W 086°58'1 0.9
2015-Apr-16 14:33N 20°31' W 086°57'1 0.7
2015-Apr-16 13:11N 20°32' W 086°58'1 2.2
2015-Apr-16 12:33N 20°31' W 086°57'1 0.8
2015-Apr-16 11:10N 20°31' W 086°58'1 1.6
2015-Apr-16 10:30N 20°30' W 086°57'0 0.0
2015-Apr-16 03:20N 20°30' W 086°57'0 0.4
2015-Apr-16 02:33N 20°31' W 086°57'0 0.0
2015-Apr-16 01:33N 20°31' W 086°57'0 0.0
2015-Apr-16 00:33N 20°31' W 086°57'0 0.0
2015-Apr-15 23:33N 20°31' W 086°57'0 0.0
2015-Apr-15 22:15N 20°31' W 086°57'2 2.5
2015-Apr-15 21:32N 20°30' W 086°59'3 0.8
2015-Apr-15 18:11N 20°32' W 086°58'1 0.3
2015-Apr-15 16:10N 20°32' W 086°58'1 1.6
2015-Apr-15 15:32N 20°31' W 086°57'0 0.1
2015-Apr-15 14:26N 20°31' W 086°57'1 1.0
2015-Apr-15 13:32N 20°31' W 086°58'0 0.3
2015-Apr-15 12:12N 20°32' W 086°58'1 1.6
2015-Apr-15 11:28N 20°31' W 086°57'0 0.0
2015-Apr-15 00:26N 20°31' W 086°57'0 0.0
2015-Apr-14 23:32N 20°31' W 086°57'0 0.3
2015-Apr-14 22:23N 20°31' W 086°57'1 0.4
2015-Apr-14 19:11N 20°32' W 086°58'1 1.3
2015-Apr-14 18:34N 20°31' W 086°57'1 0.6
2015-Apr-14 17:10N 20°32' W 086°58'3 0.8
2015-Apr-14 13:30N 20°29' W 086°59'0 0.0
2015-Apr-14 12:31N 20°29' W 086°59'2 2.4
2015-Apr-14 11:31N 20°31' W 086°57'0 0.0
2015-Apr-14 10:31N 20°31' W 086°57'0 0.0
2015-Apr-14 03:14N 20°30' W 086°57'0 0.0
2015-Apr-14 02:26N 20°30' W 086°57'0 0.0
2015-Apr-14 01:29N 20°30' W 086°57'0 0.0
2015-Apr-14 00:29N 20°30' W 086°57'0 0.0
2015-Apr-13 23:29N 20°30' W 086°57'0 0.3
2015-Apr-13 22:31N 20°31' W 086°57'0 0.0
2015-Apr-13 21:31N 20°31' W 086°57'0 0.0
2015-Apr-13 20:31N 20°31' W 086°57'0 0.4
2015-Apr-13 19:33N 20°31' W 086°57'1 0.6
2015-Apr-13 18:09N 20°31' W 086°58'0 0.2
2015-Apr-13 16:14N 20°31' W 086°58'1 1.1
2015-Apr-13 15:28N 20°31' W 086°57'0 0.1
2015-Apr-13 14:25N 20°31' W 086°57'1 0.4
2015-Apr-13 12:10N 20°31' W 086°58'1 0.9
2015-Apr-13 11:15N 20°31' W 086°57'0 0.0
2015-Apr-13 02:06N 20°31' W 086°57'1 0.6
2015-Apr-13 00:14N 20°32' W 086°58'1 1.1
2015-Apr-12 23:18N 20°31' W 086°57'0 0.1
2015-Apr-12 22:28N 20°31' W 086°57'0 0.0
2015-Apr-12 21:28N 20°31' W 086°57'0 0.0
2015-Apr-12 20:28N 20°31' W 086°57'0 0.0
2015-Apr-12 19:28N 20°31' W 086°57'0 0.0
2015-Apr-12 18:24N 20°31' W 086°57'0 0.0
2015-Apr-12 17:32N 20°31' W 086°57'0 0.0
2015-Apr-12 16:32N 20°31' W 086°57'0 0.1
2015-Apr-12 14:33N 20°31' W 086°57'0 0.1
2015-Apr-12 13:25N 20°31' W 086°57'0 0.0
2015-Apr-12 12:31N 20°31' W 086°57'1 0.1
2015-Apr-12 03:34N 20°31' W 086°57'1 0.9
2015-Apr-12 02:13N 20°32' W 086°58'2 1.8
2015-Apr-12 01:18N 20°31' W 086°57'0 0.1
2015-Apr-12 00:33N 20°31' W 086°57'0 0.0
2015-Apr-11 23:33N 20°31' W 086°57'0 0.0
2015-Apr-11 22:34N 20°31' W 086°57'0 0.1
2015-Apr-11 21:30N 20°31' W 086°57'1 0.9
2015-Apr-11 20:08N 20°32' W 086°58'0 0.2
2015-Apr-11 19:33N 20°32' W 086°58'0 0.2
2015-Apr-11 18:13N 20°32' W 086°58'1 0.5
2015-Apr-11 16:09N 20°31' W 086°57'0 0.7
2015-Apr-11 15:32N 20°31' W 086°57'0 0.1
2015-Apr-11 14:33N 20°31' W 086°57'0 0.0
2015-Apr-11 13:33N 20°31' W 086°57'0 0.0
2015-Apr-11 12:33N 20°31' W 086°57'0 0.0
2015-Apr-11 11:33N 20°31' W 086°57'0 0.0
2015-Apr-11 00:32N 20°31' W 086°57'0 0.0
2015-Apr-10 23:32N 20°31' W 086°57'0 0.2
2015-Apr-10 22:32N 20°31' W 086°57'0 0.2
2015-Apr-10 20:33N 20°31' W 086°57'0 0.2
2015-Apr-10 19:33N 20°31' W 086°57'1 1.0
2015-Apr-10 18:33N 20°32' W 086°58'0 0.3
2015-Apr-10 17:12N 20°32' W 086°58'0 0.0
2015-Apr-10 15:11N 20°32' W 086°58'1 1.7
2015-Apr-10 14:33N 20°31' W 086°57'1 0.7
2015-Apr-10 13:10N 20°32' W 086°58'1 1.6
2015-Apr-10 12:33N 20°31' W 086°57'1 0.8
2015-Apr-10 11:11N 20°32' W 086°58'2 2.3
2015-Apr-10 10:32N 20°31' W 086°57'1 0.1
2015-Apr-10 03:34N 20°31' W 086°57'1 0.7
2015-Apr-10 02:11N 20°32' W 086°58'1 1.6
2015-Apr-10 01:15N 20°31' W 086°57'0 0.1
2015-Apr-10 00:32N 20°31' W 086°57'2 2.3
2015-Apr-09 23:33N 20°29' W 086°58'3 2.5
2015-Apr-09 22:10N 20°32' W 086°58'1 1.8
2015-Apr-09 21:33N 20°31' W 086°58'0 0.1
2015-Apr-09 20:07N 20°31' W 086°58'1 0.8
2015-Apr-09 19:07N 20°31' W 086°57'  

Dump ship's entire track history